Time;durP1;ratioP1;P1;durP2;ratioP2;P2;SDS_P1;SDS_P2;PMS_P1;PMS_P2;Temp;Humidity;BMP_temperature;BMP_pressure;BME280_temperature;BME280_humidity;BME280_pressure;Samples;Min_cycle;Max_cycle;Signal;HPM_P1;HPM_P2
2022/04/29 00:01:18;;;;;;;15.32;2.90;;;7.10;77.80;;;;;;5089715;28;20052;-69
2022/04/29 00:03:44;;;;;;;10.85;3.20;;;7.00;78.20;;;;;;5089902;28;20036;-69
2022/04/29 00:06:09;;;;;;;13.00;3.28;;;6.90;78.70;;;;;;5090400;28;20078;-69
2022/04/29 00:08:36;;;;;;;9.80;2.88;;;6.90;78.80;;;;;;5088654;28;20052;-69
2022/04/29 00:11:02;;;;;;;7.25;2.88;;;6.90;79.00;;;;;;5089136;28;20507;-69
2022/04/29 00:13:27;;;;;;;10.50;3.63;;;6.90;79.40;;;;;;5089024;28;20044;-69
2022/04/29 00:15:53;;;;;;;11.55;3.13;;;6.90;79.50;;;;;;5090328;28;20040;-69
2022/04/29 00:18:18;;;;;;;8.95;3.33;;;6.90;79.30;;;;;;5089655;28;20054;-70
2022/04/29 00:20:44;;;;;;;12.55;3.58;;;6.90;79.40;;;;;;5090016;28;20040;-69
2022/04/29 00:23:11;;;;;;;11.90;3.47;;;7.00;79.50;;;;;;5090300;28;20079;-69
2022/04/29 00:25:36;;;;;;;9.27;3.60;;;7.00;79.50;;;;;;5090192;28;20615;-68
2022/04/29 00:28:03;;;;;;;9.00;2.90;;;7.00;79.60;;;;;;5088360;28;20127;-68
2022/04/29 00:30:29;;;;;;;7.15;3.15;;;7.00;79.50;;;;;;5090040;28;20055;-69
2022/04/29 00:32:55;;;;;;;7.63;3.55;;;7.00;79.60;;;;;;5089530;28;20055;-69
2022/04/29 00:35:22;;;;;;;9.07;3.65;;;7.10;79.50;;;;;;5090043;28;20040;-69
2022/04/29 00:37:53;;;;;;;9.82;3.08;;;7.10;79.50;;;;;;5088142;28;20481;-69
2022/04/29 00:40:21;;;;;;;11.13;3.20;;;7.10;79.70;;;;;;5090276;28;20450;-68
2022/04/29 00:42:47;;;;;;;9.63;4.38;;;7.10;79.40;;;;;;5089937;28;20481;-68
2022/04/29 00:45:14;;;;;;;9.35;2.85;;;7.10;79.50;;;;;;5090206;28;20047;-68
2022/04/29 00:47:41;;;;;;;8.43;3.28;;;7.20;79.10;;;;;;5072422;28;20091;-67
2022/04/29 00:50:07;;;;;;;12.70;3.28;;;7.20;79.00;;;;;;5069436;28;20048;-68
2022/04/29 00:52:36;;;;;;;7.95;3.03;;;7.20;79.00;;;;;;5068378;28;20053;-69
2022/04/29 00:55:07;;;;;;;11.88;4.07;;;7.20;78.70;;;;;;5070877;28;20084;-68
2022/04/29 00:57:50;;;;;;;13.50;2.90;;;7.20;78.90;;;;;;5069807;28;20045;-69
2022/04/29 01:00:18;;;;;;;10.32;3.55;;;7.30;78.80;;;;;;5069856;28;20048;-69
2022/04/29 01:02:48;;;;;;;7.82;2.75;;;7.30;79.00;;;;;;5070440;28;20501;-69
2022/04/29 01:05:15;;;;;;;16.10;3.28;;;7.20;79.00;;;;;;5088896;28;20048;-69
2022/04/29 01:07:43;;;;;;;13.60;3.08;;;7.20;79.20;;;;;;5089984;28;20052;-69
2022/04/29 01:10:12;;;;;;;15.38;4.13;;;7.30;79.50;;;;;;5090064;28;20040;-69
2022/04/29 01:12:40;;;;;;;9.18;3.72;;;7.20;79.50;;;;;;5088296;28;20032;-69
2022/04/29 01:15:13;;;;;;;7.97;2.88;;;7.30;79.70;;;;;;5071822;28;20079;-69
2022/04/29 01:17:39;;;;;;;7.57;2.95;;;7.20;79.60;;;;;;5076718;28;20047;-69
2022/04/29 01:20:07;;;;;;;6.60;3.55;;;7.30;79.60;;;;;;5090199;28;20047;-69
2022/04/29 01:22:33;;;;;;;7.80;2.97;;;7.30;79.60;;;;;;5090191;28;20048;-69
2022/04/29 01:24:59;;;;;;;5.30;2.63;;;7.30;79.50;;;;;;5077057;28;20079;-69
2022/04/29 01:27:25;;;;;;;16.40;3.10;;;7.20;79.50;;;;;;5069738;28;20475;-68
2022/04/29 01:30:12;;;;;;;9.15;3.20;;;7.30;79.50;;;;;;5068029;28;20105;-68
2022/04/29 01:32:39;;;;;;;7.28;3.15;;;7.20;79.30;;;;;;5070082;28;20044;-69
2022/04/29 01:35:06;;;;;;;7.82;2.95;;;7.10;79.60;;;;;;5069652;28;20477;-69
2022/04/29 01:37:33;;;;;;;7.10;3.28;;;7.10;79.50;;;;;;5069496;28;20486;-69
2022/04/29 01:39:58;;;;;;;9.45;3.85;;;7.20;79.40;;;;;;5069166;28;20516;-69
2022/04/29 01:42:24;;;;;;;7.38;3.10;;;7.10;79.30;;;;;;5073876;28;20032;-68
2022/04/29 01:44:50;;;;;;;9.60;3.30;;;7.10;79.60;;;;;;5092341;28;20484;-69
2022/04/29 01:47:16;;;;;;;6.07;3.42;;;7.10;79.70;;;;;;5093322;28;20507;-70
2022/04/29 01:49:42;;;;;;;12.85;3.42;;;7.10;79.60;;;;;;5092857;28;20087;-69
2022/04/29 01:52:08;;;;;;;8.75;3.25;;;7.20;79.60;;;;;;5092645;28;20532;-70
2022/04/29 01:54:35;;;;;;;6.00;2.97;;;7.20;79.70;;;;;;5093097;28;20055;-69
2022/04/29 01:57:01;;;;;;;7.25;3.20;;;7.10;79.70;;;;;;5093021;28;20048;-69
2022/04/29 01:59:29;;;;;;;8.55;3.72;;;7.10;79.40;;;;;;5091465;28;20044;-69
2022/04/29 02:01:55;;;;;;;17.65;4.72;;;7.10;79.60;;;;;;5076879;28;20044;-69
2022/04/29 02:04:21;;;;;;;7.95;2.70;;;7.10;79.50;;;;;;5072799;28;20048;-69
2022/04/29 02:06:47;;;;;;;10.98;3.65;;;7.00;79.70;;;;;;5072466;28;20139;-69
2022/04/29 02:09:12;;;;;;;6.45;3.15;;;7.00;79.70;;;;;;5072008;28;20607;-69
2022/04/29 02:11:38;;;;;;;12.52;3.67;;;6.90;80.10;;;;;;5072392;28;20074;-69
2022/04/29 02:14:04;;;;;;;8.82;3.13;;;6.90;80.20;;;;;;5072524;28;20076;-69
2022/04/29 02:16:29;;;;;;;9.25;3.78;;;6.90;80.40;;;;;;5072449;28;20054;-69
2022/04/29 02:18:55;;;;;;;10.70;3.50;;;6.90;80.70;;;;;;5072251;28;20501;-69
2022/04/29 02:21:21;;;;;;;11.73;3.53;;;6.90;80.60;;;;;;5071738;28;20050;-69
2022/04/29 02:23:46;;;;;;;9.13;3.65;;;6.90;80.70;;;;;;5072401;28;20051;-69
2022/04/29 02:26:12;;;;;;;9.43;3.35;;;6.90;80.70;;;;;;5072029;28;20048;-69
2022/04/29 02:28:38;;;;;;;9.70;4.30;;;6.80;81.00;;;;;;5072169;28;20567;-69
2022/04/29 02:31:04;;;;;;;9.50;3.45;;;6.80;81.00;;;;;;5071762;28;20047;-69
2022/04/29 02:33:30;;;;;;;8.15;3.60;;;6.80;81.00;;;;;;5072062;28;20037;-69
2022/04/29 02:35:56;;;;;;;9.00;3.25;;;6.90;80.80;;;;;;5071500;28;20043;-69
2022/04/29 02:38:22;;;;;;;11.65;4.30;;;6.90;80.90;;;;;;5071152;28;20417;-69
2022/04/29 02:40:50;;;;;;;12.75;4.07;;;6.90;80.90;;;;;;5071164;28;20055;-70
2022/04/29 02:43:19;;;;;;;8.82;3.75;;;6.90;80.90;;;;;;5070974;28;20048;-69
2022/04/29 02:45:46;;;;;;;8.65;3.50;;;6.80;81.00;;;;;;5070514;28;20477;-69
2022/04/29 02:48:14;;;;;;;8.32;3.45;;;6.90;81.00;;;;;;5071132;28;20064;-69
2022/04/29 02:50:40;;;;;;;11.35;4.18;;;6.90;80.80;;;;;;5070726;28;20501;-69
2022/04/29 02:53:06;;;;;;;9.38;4.32;;;6.90;80.70;;;;;;5070906;28;20048;-69
2022/04/29 02:55:31;;;;;;;7.50;3.25;;;6.90;80.70;;;;;;5068968;28;20055;-69
2022/04/29 02:57:57;;;;;;;6.25;3.30;;;6.90;80.60;;;;;;5070508;28;20045;-70
2022/04/29 03:00:23;;;;;;;10.40;3.97;;;7.00;80.50;;;;;;5070662;28;20052;-70
2022/04/29 03:02:48;;;;;;;7.25;3.95;;;7.00;80.40;;;;;;5069269;28;20037;-70
2022/04/29 03:05:14;;;;;;;9.82;3.92;;;7.00;80.50;;;;;;5070610;28;20072;-70
2022/04/29 03:07:39;;;;;;;8.27;3.90;;;7.00;80.40;;;;;;5070507;28;20563;-69
2022/04/29 03:10:05;;;;;;;8.55;3.13;;;7.00;80.10;;;;;;5070558;28;20048;-70
2022/04/29 03:12:31;;;;;;;4.97;3.35;;;7.00;80.20;;;;;;5087518;28;20043;-70
2022/04/29 03:15:15;;;;;;;11.70;3.67;;;7.10;80.10;;;;;;5090744;28;20052;-70
2022/04/29 03:20:26;;;;;;;11.00;3.47;;;7.10;79.80;;;;;;5090708;28;20420;-69
2022/04/29 03:22:52;;;;;;;9.82;3.80;;;7.10;79.80;;;;;;5085702;28;20041;-69
2022/04/29 03:25:18;;;;;;;6.00;3.20;;;7.10;79.80;;;;;;5069929;28;20052;-69
2022/04/29 03:27:44;;;;;;;9.65;3.70;;;7.10;79.60;;;;;;5070292;28;20117;-69
2022/04/29 03:30:10;;;;;;;6.78;3.78;;;7.10;79.50;;;;;;5069956;28;20095;-69
2022/04/29 03:32:36;;;;;;;9.57;4.05;;;7.10;79.40;;;;;;5089866;28;20059;-69
2022/04/29 03:35:01;;;;;;;9.52;4.10;;;7.10;79.30;;;;;;5084520;28;20037;-69
2022/04/29 03:37:27;;;;;;;9.77;4.20;;;7.10;79.20;;;;;;5085812;28;20052;-69
2022/04/29 03:39:53;;;;;;;8.13;3.35;;;7.20;79.10;;;;;;5068560;28;20045;-69
2022/04/29 03:42:19;;;;;;;6.47;4.07;;;7.10;79.20;;;;;;5069721;28;20092;-69
2022/04/29 03:44:45;;;;;;;14.07;5.05;;;7.10;79.40;;;;;;5069339;28;20036;-69
2022/04/29 03:47:10;;;;;;;4.95;3.97;;;7.00;79.50;;;;;;5069733;28;20045;-69
2022/04/29 03:49:36;;;;;;;10.15;4.07;;;7.00;79.40;;;;;;5069857;28;20048;-69
2022/04/29 03:52:01;;;;;;;7.85;3.45;;;7.10;79.30;;;;;;5069312;28;20052;-69
2022/04/29 03:54:27;;;;;;;7.35;3.42;;;7.10;79.20;;;;;;5069445;28;20052;-69
2022/04/29 03:56:52;;;;;;;7.88;4.00;;;7.10;79.20;;;;;;5070255;28;20067;-69
2022/04/29 03:59:19;;;;;;;6.57;3.10;;;7.10;79.20;;;;;;5069530;28;20064;-69
2022/04/29 04:01:45;;;;;;;7.13;3.65;;;7.10;79.10;;;;;;5069980;28;20561;-69
2022/04/29 04:04:11;;;;;;;7.75;4.32;;;7.20;79.10;;;;;;5069247;28;20048;-69
2022/04/29 04:06:52;;;;;;;14.43;4.07;;;7.20;79.00;;;;;;5075927;28;20523;-70
2022/04/29 04:09:24;;;;;;;5.18;3.10;;;7.20;78.90;;;;;;5089198;28;20180;-69
2022/04/29 04:11:50;;;;;;;8.23;4.28;;;7.20;78.80;;;;;;5088781;28;20047;-69
2022/04/29 04:14:18;;;;;;;7.40;3.72;;;7.10;79.30;;;;;;5071407;28;20048;-69
2022/04/29 04:16:44;;;;;;;12.00;3.90;;;7.10;79.30;;;;;;5088788;28;20500;-69
2022/04/29 04:19:10;;;;;;;5.82;3.50;;;7.00;79.80;;;;;;5086324;28;20500;-69
2022/04/29 04:21:36;;;;;;;4.20;3.35;;;7.00;79.90;;;;;;5088734;28;20037;-70
2022/04/29 04:24:01;;;;;;;9.07;3.85;;;7.00;80.20;;;;;;5075056;28;20036;-70
2022/04/29 04:26:27;;;;;;;8.18;3.72;;;6.90;80.30;;;;;;5076450;28;20040;-69
2022/04/29 04:28:52;;;;;;;8.50;3.90;;;7.00;80.20;;;;;;5088503;28;20496;-69
2022/04/29 04:31:21;;;;;;;7.93;3.60;;;6.90;80.20;;;;;;5105121;28;20051;-70
2022/04/29 04:33:48;;;;;;;8.65;3.25;;;7.00;80.20;;;;;;5088815;28;20117;-69
2022/04/29 04:36:14;;;;;;;7.43;3.80;;;6.90;80.20;;;;;;5089055;28;20127;-69
2022/04/29 04:38:39;;;;;;;6.00;4.43;;;6.90;80.30;;;;;;5089021;28;20207;-69
2022/04/29 04:41:07;;;;;;;9.65;3.70;;;6.90;80.60;;;;;;5089246;28;20040;-69
2022/04/29 04:43:33;;;;;;;13.98;4.15;;;6.90;80.70;;;;;;5089158;28;20081;-70
2022/04/29 04:45:58;;;;;;;7.78;3.50;;;6.90;80.60;;;;;;5086874;28;20044;-70
2022/04/29 04:48:24;;;;;;;10.38;3.80;;;7.00;80.60;;;;;;5087580;28;20044;-69
2022/04/29 04:50:50;;;;;;;6.72;3.63;;;7.00;80.60;;;;;;5087449;28;20127;-70
2022/04/29 04:53:15;;;;;;;10.20;3.85;;;7.00;80.70;;;;;;5089096;28;20397;-70
2022/04/29 04:55:41;;;;;;;8.63;3.83;;;7.00;80.60;;;;;;5084065;28;20131;-70
2022/04/29 04:58:08;;;;;;;4.30;3.72;;;7.10;80.50;;;;;;5087676;28;20036;-70
2022/04/29 05:00:35;;;;;;;8.38;3.50;;;7.00;80.70;;;;;;5087022;28;20059;-69
2022/04/29 05:03:01;;;;;;;8.23;3.72;;;7.10;80.70;;;;;;5069756;28;20052;-69
2022/04/29 05:05:26;;;;;;;9.05;3.47;;;7.10;80.60;;;;;;5068687;28;20074;-69
2022/04/29 05:07:52;;;;;;;8.18;3.60;;;7.10;80.80;;;;;;5068369;28;20125;-69
2022/04/29 05:10:18;;;;;;;4.78;3.42;;;7.10;81.00;;;;;;5068802;28;20080;-69
2022/04/29 05:12:46;;;;;;;5.47;3.63;;;7.20;80.80;;;;;;5067412;28;20049;-70
2022/04/29 05:15:13;;;;;;;11.88;3.50;;;7.20;80.70;;;;;;5068271;28;20044;-70
2022/04/29 05:17:39;;;;;;;8.85;3.70;;;7.20;80.60;;;;;;5069536;28;20052;-69
2022/04/29 05:20:07;;;;;;;6.50;3.75;;;7.20;80.50;;;;;;5073194;28;20045;-70
2022/04/29 05:22:32;;;;;;;8.90;3.92;;;7.20;80.50;;;;;;5071786;28;20452;-71
2022/04/29 05:24:58;;;;;;;9.05;3.75;;;7.20;80.70;;;;;;5071094;28;20059;-70
2022/04/29 05:27:24;;;;;;;8.18;4.13;;;7.10;80.90;;;;;;5079261;28;20551;-70
2022/04/29 05:29:49;;;;;;;8.07;3.95;;;7.10;80.80;;;;;;5092485;28;20043;-69
2022/04/29 05:32:16;;;;;;;6.53;3.72;;;7.20;80.90;;;;;;5091164;28;20040;-70
2022/04/29 05:34:43;;;;;;;13.60;4.20;;;7.10;81.10;;;;;;5091500;28;20070;-70
2022/04/29 05:37:09;;;;;;;9.25;4.70;;;7.20;80.70;;;;;;5084693;28;20116;-69
2022/04/29 05:42:21;;;;;;;5.45;4.03;;;7.30;80.90;;;;;;5092132;28;20052;-69
2022/04/29 05:44:47;;;;;;;12.32;4.88;;;7.30;81.00;;;;;;5092440;28;20052;-70
2022/04/29 05:47:12;;;;;;;6.38;3.88;;;7.40;80.70;;;;;;5077184;28;20480;-69
2022/04/29 05:49:38;;;;;;;7.40;3.67;;;7.50;80.60;;;;;;5072005;28;20052;-69
2022/04/29 05:52:05;;;;;;;7.38;4.25;;;7.60;80.40;;;;;;5071725;28;20084;-69
2022/04/29 05:54:32;;;;;;;10.30;3.67;;;7.60;80.30;;;;;;5071756;28;20123;-69
2022/04/29 05:56:58;;;;;;;8.07;3.80;;;7.60;80.00;;;;;;5072552;28;20071;-69
2022/04/29 05:59:24;;;;;;;10.60;3.80;;;7.70;79.90;;;;;;5071781;28;20041;-70
2022/04/29 06:01:50;;;;;;;12.43;3.90;;;7.70;79.80;;;;;;5071736;28;20041;-69
2022/04/29 06:04:16;;;;;;;6.32;3.30;;;7.80;79.80;;;;;;5070202;28;20040;-70
2022/04/29 06:06:42;;;;;;;10.30;4.40;;;7.90;79.80;;;;;;5071305;28;20497;-69
2022/04/29 06:09:07;;;;;;;4.63;3.38;;;7.90;79.70;;;;;;5069943;28;20063;-70
2022/04/29 06:11:33;;;;;;;8.43;3.90;;;7.90;79.50;;;;;;5072602;28;20199;-69
2022/04/29 06:13:59;;;;;;;5.50;3.10;;;7.90;79.30;;;;;;5071295;28;20044;-69
2022/04/29 06:16:25;;;;;;;10.00;3.75;;;8.00;79.30;;;;;;5071006;28;20548;-69
2022/04/29 06:18:51;;;;;;;13.15;3.28;;;8.10;79.20;;;;;;5081797;28;20051;-69
2022/04/29 06:21:18;;;;;;;9.30;4.30;;;8.10;79.10;;;;;;5089851;28;20032;-69
2022/04/29 06:23:44;;;;;;;6.97;3.22;;;8.10;79.00;;;;;;5091243;28;20063;-69
2022/04/29 06:26:10;;;;;;;9.55;3.55;;;8.10;78.70;;;;;;5075830;28;20032;-70
2022/04/29 06:28:36;;;;;;;9.02;3.28;;;8.10;78.90;;;;;;5090765;28;20130;-69
2022/04/29 06:31:03;;;;;;;7.90;3.33;;;8.20;78.90;;;;;;5090720;28;20564;-69
2022/04/29 06:33:33;;;;;;;7.20;3.55;;;8.20;78.70;;;;;;5078507;28;20044;-68
2022/04/29 06:35:58;;;;;;;6.18;3.53;;;8.30;78.60;;;;;;5069443;28;20494;-68
2022/04/29 06:38:25;;;;;;;11.50;3.67;;;8.30;78.40;;;;;;5080119;28;20047;-69
2022/04/29 06:40:52;;;;;;;8.15;3.40;;;8.30;77.90;;;;;;5077349;28;21232;-69
2022/04/29 06:43:21;;;;;;;12.13;3.50;;;8.40;77.60;;;;;;5071055;28;20132;-68
2022/04/29 06:45:46;;;;;;;7.28;3.50;;;8.40;77.50;;;;;;5090784;28;20047;-68
2022/04/29 06:48:12;;;;;;;11.02;3.33;;;8.30;77.50;;;;;;5084643;28;20131;-69
2022/04/29 06:50:38;;;;;;;9.90;3.10;;;8.40;77.30;;;;;;5070715;28;20051;-69
2022/04/29 06:53:03;;;;;;;8.88;3.08;;;8.40;77.50;;;;;;5078242;28;20063;-69
2022/04/29 06:55:29;;;;;;;10.63;2.72;;;8.50;77.40;;;;;;5090730;28;20079;-70
2022/04/29 06:57:55;;;;;;;12.05;3.20;;;8.50;77.00;;;;;;5088462;28;20096;-69
2022/04/29 07:00:20;;;;;;;8.95;2.92;;;8.60;76.80;;;;;;5085419;28;20485;-70
2022/04/29 07:02:46;;;;;;;6.28;2.92;;;8.70;76.50;;;;;;5070556;28;20036;-70
2022/04/29 07:05:12;;;;;;;9.07;2.63;;;8.70;76.20;;;;;;5072529;28;20052;-69
2022/04/29 07:07:38;;;;;;;7.88;2.33;;;8.70;76.30;;;;;;5087860;28;20054;-69
2022/04/29 07:10:04;;;;;;;3.88;2.28;;;8.70;75.40;;;;;;5075720;28;20049;-69
2022/04/29 07:12:33;;;;;;;9.57;2.88;;;8.80;75.00;;;;;;5070073;28;20041;-69
2022/04/29 07:14:59;;;;;;;9.07;3.80;;;8.80;75.30;;;;;;5076942;28;20044;-70
2022/04/29 07:17:25;;;;;;;13.45;4.00;;;8.90;75.00;;;;;;5085966;28;20052;-69
2022/04/29 07:19:52;;;;;;;14.30;3.22;;;9.00;75.00;;;;;;5089093;28;20048;-68
2022/04/29 07:22:18;;;;;;;7.85;2.47;;;9.00;74.60;;;;;;5081577;28;20505;-69
2022/04/29 07:24:44;;;;;;;4.97;3.25;;;9.00;74.60;;;;;;5081283;28;20044;-69
2022/04/29 07:27:15;;;;;;;4.57;2.10;;;9.10;74.50;;;;;;5077455;28;20044;-69
2022/04/29 07:29:41;;;;;;;5.72;2.10;;;9.20;74.50;;;;;;5076673;28;20075;-69
2022/04/29 07:32:07;;;;;;;7.00;2.00;;;9.30;74.10;;;;;;5074483;28;20462;-70
2022/04/29 07:42:45;;;;;;;6.35;1.98;;;9.30;73.00;;;;;;5069561;28;20098;-69
2022/04/29 07:45:11;;;;;;;10.70;4.10;;;9.30;72.80;;;;;;5098596;28;20413;-69
2022/04/29 07:47:36;;;;;;;6.53;2.63;;;9.30;72.70;;;;;;5073174;28;20051;-69
2022/04/29 07:50:08;;;;;;;7.60;2.60;;;9.50;73.00;;;;;;5082381;28;20052;-69
2022/04/29 07:52:34;;;;;;;9.38;2.58;;;9.60;73.20;;;;;;5071476;28;20094;-67
2022/04/29 07:55:01;;;;;;;7.55;2.33;;;9.60;73.10;;;;;;5068291;28;20053;-67
2022/04/29 07:57:26;;;;;;;5.03;2.10;;;9.90;72.00;;;;;;5068541;28;20036;-67
2022/04/29 07:59:52;;;;;;;4.07;1.77;;;9.90;71.40;;;;;;5069376;28;20048;-67
2022/04/29 08:02:17;;;;;;;6.75;2.00;;;9.90;71.60;;;;;;5069073;28;20485;-66
2022/04/29 08:04:43;;;;;;;8.95;1.85;;;10.00;71.30;;;;;;5069451;28;20049;-68
2022/04/29 08:07:11;;;;;;;8.38;2.53;;;10.10;71.00;;;;;;5069296;28;20049;-67
2022/04/29 08:09:37;;;;;;;5.97;1.60;;;10.10;70.20;;;;;;5069083;28;20143;-67
2022/04/29 08:12:04;;;;;;;9.07;2.67;;;10.20;70.00;;;;;;5069200;28;20131;-67
2022/04/29 08:14:31;;;;;;;4.75;1.27;;;10.20;70.10;;;;;;5069221;28;20460;-67
2022/04/29 08:16:57;;;;;;;10.23;3.50;;;10.30;70.00;;;;;;5069147;28;20523;-67
2022/04/29 08:19:23;;;;;;;5.70;2.03;;;10.30;69.20;;;;;;5069172;28;20079;-68
2022/04/29 08:21:49;;;;;;;17.98;2.67;;;10.20;69.20;;;;;;5069301;28;20090;-66
2022/04/29 08:24:15;;;;;;;5.45;1.88;;;10.30;69.00;;;;;;5068935;28;20039;-66
2022/04/29 08:26:40;;;;;;;5.72;1.65;;;10.30;68.70;;;;;;5068514;28;20048;-66
2022/04/29 08:29:06;;;;;;;4.63;1.40;;;10.20;69.00;;;;;;5069119;28;20048;-67
2022/04/29 08:31:31;;;;;;;7.07;3.35;;;10.20;69.20;;;;;;5069043;28;20449;-66
2022/04/29 08:33:57;;;;;;;8.02;2.20;;;10.20;69.40;;;;;;5068770;28;20509;-66
2022/04/29 08:36:23;;;;;;;4.50;1.23;;;10.40;68.10;;;;;;5067580;28;20051;-67
2022/04/29 08:38:48;;;;;;;8.18;1.55;;;10.30;67.90;;;;;;5069089;28;20048;-66
2022/04/29 08:41:18;;;;;;;6.20;1.88;;;10.30;68.40;;;;;;5068668;28;20059;-66
2022/04/29 08:43:45;;;;;;;5.38;1.42;;;10.30;67.90;;;;;;5068889;28;20043;-67
2022/04/29 08:46:13;;;;;;;5.43;1.73;;;10.30;68.10;;;;;;5069101;28;20044;-67
2022/04/29 08:48:41;;;;;;;3.78;1.55;;;10.30;67.60;;;;;;5068882;28;20813;-67
2022/04/29 08:51:07;;;;;;;4.82;1.30;;;10.20;67.70;;;;;;5068994;28;20040;-66
2022/04/29 08:53:34;;;;;;;4.88;1.40;;;10.20;68.20;;;;;;5071413;28;20082;-68
2022/04/29 08:58:46;;;;;;;6.72;2.22;;;10.30;67.10;;;;;;5072948;28;20588;-67
2022/04/29 09:01:16;;;;;;;4.80;2.28;;;10.10;67.40;;;;;;5072854;28;20420;-67
2022/04/29 09:03:45;;;;;;;6.15;1.63;;;10.20;66.80;;;;;;5072709;28;20055;-67
2022/04/29 09:06:10;;;;;;;4.10;1.40;;;10.10;66.80;;;;;;5072674;28;20413;-68
2022/04/29 09:08:41;;;;;;;8.02;1.63;;;10.30;66.40;;;;;;5072770;28;20102;-67
2022/04/29 09:11:08;;;;;;;5.65;1.85;;;10.10;66.20;;;;;;5072799;28;20084;-68
2022/04/29 09:13:37;;;;;;;6.78;1.92;;;10.10;66.70;;;;;;5072819;28;20519;-67
2022/04/29 09:16:05;;;;;;;4.70;1.60;;;10.20;66.40;;;;;;5072741;28;20055;-66
2022/04/29 09:18:44;;;;;;;6.90;1.83;;;10.20;65.70;;;;;;5072382;28;20052;-66
2022/04/29 09:21:18;;;;;;;5.50;1.42;;;10.20;65.40;;;;;;5072510;28;20045;-66
2022/04/29 09:23:54;;;;;;;8.10;1.70;;;10.20;65.30;;;;;;5072484;28;20040;-66
2022/04/29 09:26:35;;;;;;;8.50;1.85;;;10.20;65.60;;;;;;5072270;28;20040;-66
2022/04/29 09:29:11;;;;;;;7.33;2.83;;;10.20;65.30;;;;;;5072282;28;20413;-67
2022/04/29 09:31:54;;;;;;;5.40;1.38;;;10.20;65.20;;;;;;5072075;28;20297;-66
2022/04/29 09:34:20;;;;;;;7.43;1.67;;;10.20;65.00;;;;;;5072242;28;20047;-67
2022/04/29 09:36:46;;;;;;;4.93;1.42;;;10.20;65.30;;;;;;5072302;28;20119;-67
2022/04/29 09:39:27;;;;;;;5.65;1.85;;;10.30;64.90;;;;;;5072098;28;20182;-66
2022/04/29 09:42:06;;;;;;;5.50;1.52;;;10.40;64.50;;;;;;5071977;28;20131;-67
2022/04/29 09:44:34;;;;;;;4.38;1.42;;;10.50;64.00;;;;;;5071626;28;20048;-66
2022/04/29 09:47:14;;;;;;;4.68;1.50;;;10.40;64.20;;;;;;5071916;28;20049;-67
2022/04/29 09:49:54;;;;;;;4.07;1.80;;;10.50;63.80;;;;;;5073331;28;20052;-67
2022/04/29 09:52:20;;;;;;;6.97;1.73;;;10.50;64.10;;;;;;5085034;28;20040;-67
2022/04/29 09:54:46;;;;;;;6.63;2.28;;;10.50;64.40;;;;;;5080354;28;20071;-67
2022/04/29 09:57:23;;;;;;;4.75;2.03;;;10.60;64.20;;;;;;5075813;28;20074;-67
2022/04/29 09:59:59;;;;;;;8.02;2.22;;;10.60;64.00;;;;;;5067403;28;20101;-66
2022/04/29 10:02:28;;;;;;;7.78;2.20;;;10.70;64.30;;;;;;5073016;28;20052;-67
2022/04/29 10:04:55;;;;;;;5.63;1.85;;;10.80;64.20;;;;;;5073775;28;20084;-67
2022/04/29 10:07:23;;;;;;;6.03;2.47;;;10.80;64.30;;;;;;5085789;28;20059;-67
2022/04/29 10:09:50;;;;;;;5.85;1.73;;;10.80;64.40;;;;;;5072851;28;20063;-67
2022/04/29 10:12:18;;;;;;;4.00;1.83;;;10.80;64.50;;;;;;5089175;28;20040;-66
2022/04/29 10:14:45;;;;;;;7.40;2.17;;;10.80;64.50;;;;;;5091058;28;20090;-67
2022/04/29 10:22:51;;;;;;;8.27;2.35;;;10.80;63.60;;;;;;5090726;28;20056;-66
2022/04/29 10:25:22;;;;;;;5.53;2.22;;;10.60;63.40;;;;;;5082955;28;20040;-66
2022/04/29 10:27:52;;;;;;;4.97;2.00;;;10.60;64.10;;;;;;5080481;28;20044;-67
2022/04/29 10:30:28;;;;;;;7.75;2.20;;;10.60;64.20;;;;;;5084345;28;20127;-66
2022/04/29 10:33:16;;;;;;;8.60;1.92;;;10.60;64.30;;;;;;5080757;28;20040;-68
2022/04/29 10:35:56;;;;;;;7.95;2.42;;;10.70;64.10;;;;;;5089936;28;20094;-67
2022/04/29 10:38:39;;;;;;;4.53;2.10;;;10.60;64.20;;;;;;5089721;28;20580;-68
2022/04/29 10:41:12;;;;;;;3.35;1.73;;;10.80;63.00;;;;;;5106329;28;20483;-68
2022/04/29 10:43:50;;;;;;;6.35;2.15;;;10.80;62.90;;;;;;5089148;28;20048;-67
2022/04/29 10:46:31;;;;;;;3.72;1.73;;;10.90;62.30;;;;;;5090731;28;20044;-68
2022/04/29 10:48:57;;;;;;;8.80;2.10;;;10.90;62.70;;;;;;5090708;28;20048;-68
2022/04/29 10:51:28;;;;;;;11.25;2.05;;;11.00;62.80;;;;;;5090915;28;20048;-68
2022/04/29 10:53:56;;;;;;;6.97;2.25;;;11.00;63.00;;;;;;5091000;28;20051;-67
2022/04/29 10:56:28;;;;;;;4.70;2.30;;;11.00;62.80;;;;;;5089125;28;20059;-67
2022/04/29 10:59:09;;;;;;;3.45;1.88;;;11.00;62.70;;;;;;5089778;28;20040;-68
2022/04/29 11:01:36;;;;;;;8.70;1.98;;;11.10;62.30;;;;;;5091167;28;20048;-67
2022/04/29 11:04:31;;;;;;;6.65;1.80;;;11.10;62.30;;;;;;5090897;28;20065;-67
2022/04/29 11:06:57;;;;;;;11.02;2.38;;;11.30;60.80;;;;;;5090484;28;20056;-67
2022/04/29 11:09:51;;;;;;;6.72;2.00;;;11.00;61.80;;;;;;5090196;28;20060;-67
2022/04/29 11:12:31;;;;;;;6.65;1.95;;;11.00;61.70;;;;;;5085723;28;20496;-67
2022/04/29 11:15:18;;;;;;;8.77;3.55;;;11.00;61.70;;;;;;5090714;28;20081;-67
2022/04/29 11:17:44;;;;;;;9.02;2.00;;;10.90;62.40;;;;;;5089749;28;20052;-67
2022/04/29 11:20:21;;;;;;;12.90;2.47;;;11.00;62.30;;;;;;5090329;28;20101;-68
2022/04/29 11:25:59;;;;;;;5.88;1.60;;;11.10;62.40;;;;;;5090329;28;20048;-67
2022/04/29 11:28:26;;;;;;;6.95;1.65;;;11.00;62.70;;;;;;5089931;28;20125;-67
2022/04/29 11:31:00;;;;;;;3.67;1.70;;;10.90;63.00;;;;;;5090216;28;20412;-67
2022/04/29 11:33:27;;;;;;;7.82;2.30;;;11.00;62.90;;;;;;5078718;28;20040;-66
2022/04/29 11:36:01;;;;;;;7.47;3.20;;;11.00;62.80;;;;;;5069823;28;20075;-66
2022/04/29 11:38:28;;;;;;;9.43;1.80;;;11.00;62.60;;;;;;5082134;28;20123;-67
2022/04/29 11:40:54;;;;;;;6.13;1.80;;;11.10;61.80;;;;;;5076794;28;20046;-67
2022/04/29 11:43:23;;;;;;;4.57;1.65;;;11.10;61.60;;;;;;5076440;28;20389;-69
2022/04/29 11:46:05;;;;;;;6.55;2.35;;;11.10;61.80;;;;;;5087855;28;20048;-68
2022/04/29 11:48:34;;;;;;;5.45;2.38;;;11.10;60.30;;;;;;5077146;28;20048;-66
2022/04/29 11:51:01;;;;;;;4.68;1.73;;;11.00;61.00;;;;;;5071321;28;20097;-66
2022/04/29 11:53:27;;;;;;;3.72;1.60;;;11.00;60.70;;;;;;5076692;28;20048;-67
2022/04/29 11:55:53;;;;;;;6.38;2.17;;;10.90;61.50;;;;;;5088481;28;20048;-67
2022/04/29 11:58:19;;;;;;;8.07;2.30;;;10.80;61.90;;;;;;5071822;28;20052;-67
2022/04/29 12:00:50;;;;;;;6.68;2.10;;;10.90;62.10;;;;;;5086794;28;20043;-68
2022/04/29 12:03:20;;;;;;;6.93;1.90;;;10.90;62.40;;;;;;5078311;28;20040;-67
2022/04/29 12:05:46;;;;;;;4.75;1.65;;;10.90;62.20;;;;;;5084136;28;20036;-67
2022/04/29 12:08:12;;;;;;;3.83;1.75;;;11.10;61.50;;;;;;5080983;28;20100;-67
2022/04/29 12:10:41;;;;;;;4.03;1.70;;;11.00;61.60;;;;;;5084103;28;20049;-67
2022/04/29 12:13:06;;;;;;;4.18;1.50;;;10.90;61.70;;;;;;5082480;28;20036;-67
2022/04/29 12:15:35;;;;;;;3.25;1.10;;;10.90;61.80;;;;;;5089125;28;20048;-67
2022/04/29 12:18:07;;;;;;;5.78;1.75;;;10.80;62.60;;;;;;5087475;28;20044;-66
2022/04/29 12:20:33;;;;;;;3.88;1.27;;;10.80;63.20;;;;;;5085337;28;20104;-66
2022/04/29 12:23:12;;;;;;;6.63;1.50;;;10.80;63.10;;;;;;5076718;28;20236;-66
2022/04/29 12:25:42;;;;;;;7.05;1.67;;;10.90;62.50;;;;;;5084948;28;20447;-67
2022/04/29 12:28:13;;;;;;;5.97;1.60;;;10.80;63.10;;;;;;5084524;28;20095;-67
2022/04/29 12:36:53;;;;;;;6.65;1.65;;;10.90;62.60;;;;;;5082366;28;20106;-66
2022/04/29 12:39:24;;;;;;;5.57;1.60;;;10.90;62.60;;;;;;5085401;28;20032;-66
2022/04/29 12:42:00;;;;;;;11.30;2.10;;;10.90;63.00;;;;;;5075339;28;20724;-66
2022/04/29 12:47:24;;;;;;;9.70;2.00;;;11.20;62.40;;;;;;5079447;28;20040;-66
2022/04/29 12:49:51;;;;;;;7.55;1.95;;;11.30;62.00;;;;;;5068979;28;20047;-66
2022/04/29 12:52:16;;;;;;;4.15;1.98;;;11.40;61.70;;;;;;5073723;28;20109;-66
2022/04/29 12:54:42;;;;;;;4.35;1.40;;;11.40;61.60;;;;;;5079968;28;20522;-66
2022/04/29 12:57:09;;;;;;;9.85;1.90;;;11.40;61.50;;;;;;5088327;28;20040;-66
2022/04/29 12:59:37;;;;;;;3.45;1.48;;;11.50;61.60;;;;;;5071431;28;20052;-66
2022/04/29 13:02:07;;;;;;;7.45;2.42;;;11.50;61.10;;;;;;5068369;28;20114;-66
2022/04/29 13:04:33;;;;;;;3.47;1.70;;;11.50;61.20;;;;;;5068457;28;20048;-66
2022/04/29 13:07:02;;;;;;;4.20;1.45;;;11.50;61.50;;;;;;5066340;28;20739;-66
2022/04/29 13:09:28;;;;;;;9.75;1.98;;;11.50;61.50;;;;;;5068418;28;20135;-66
2022/04/29 13:11:53;;;;;;;9.27;1.98;;;11.50;61.10;;;;;;5068223;28;20083;-67
2022/04/29 13:14:19;;;;;;;6.25;2.40;;;11.50;61.20;;;;;;5068200;28;20084;-66
2022/04/29 13:16:45;;;;;;;3.60;1.88;;;11.60;60.60;;;;;;5068165;28;20041;-66
2022/04/29 13:19:11;;;;;;;6.30;2.10;;;11.60;60.20;;;;;;5067993;28;20044;-66
2022/04/29 13:21:37;;;;;;;6.03;2.33;;;11.60;60.80;;;;;;5079949;28;20846;-66
2022/04/29 13:24:03;;;;;;;8.57;2.38;;;11.50;61.10;;;;;;5075526;28;20040;-66
2022/04/29 13:26:29;;;;;;;5.32;2.20;;;11.50;60.70;;;;;;5079746;28;20041;-66
2022/04/29 13:28:55;;;;;;;4.60;2.05;;;11.40;61.10;;;;;;5074386;28;20048;-66